createdAt,value
2017-06-24T00:00:29.699Z,0
2017-06-24T00:01:10.171Z,0
2017-06-24T00:01:50.667Z,0
2017-06-24T00:02:31.153Z,0
2017-06-24T00:03:11.647Z,0
2017-06-24T00:03:52.152Z,0
2017-06-24T00:04:32.647Z,0
2017-06-24T00:05:13.152Z,0
2017-06-24T00:05:53.653Z,0
2017-06-24T00:06:34.143Z,0
2017-06-24T00:07:14.640Z,0
2017-06-24T00:07:55.132Z,0
2017-06-24T00:08:35.622Z,0
2017-06-24T00:09:16.123Z,0
2017-06-24T00:09:56.610Z,0
2017-06-24T00:10:37.101Z,0
2017-06-24T00:11:17.601Z,0
2017-06-24T00:11:58.084Z,0
2017-06-24T00:12:38.578Z,0
2017-06-24T00:13:19.081Z,0
2017-06-24T00:13:59.577Z,0
2017-06-24T00:14:40.086Z,0
2017-06-24T00:15:20.582Z,0
2017-06-24T00:16:01.073Z,0
2017-06-24T00:16:41.572Z,0
2017-06-24T00:17:22.058Z,0
2017-06-24T00:18:02.558Z,0
2017-06-24T00:18:43.059Z,0
2017-06-24T00:19:23.547Z,0
2017-06-24T00:20:04.042Z,0
2017-06-24T00:20:44.548Z,0
2017-06-24T00:21:25.043Z,0
2017-06-24T00:22:05.537Z,0
2017-06-24T00:22:46.036Z,0
2017-06-24T00:23:26.521Z,0
2017-06-24T00:24:07.023Z,0
2017-06-24T00:24:47.512Z,0
2017-06-24T00:25:28.012Z,0
2017-06-24T00:26:08.509Z,0
2017-06-24T00:28:06.295Z,0
2017-06-24T00:28:46.729Z,0
2017-06-24T00:29:27.221Z,0
2017-06-24T00:30:07.722Z,0
2017-06-24T00:30:48.221Z,0
2017-06-24T00:31:28.710Z,0
2017-06-24T00:32:09.179Z,0
2017-06-24T00:32:49.678Z,0
2017-06-24T00:33:30.185Z,0
2017-06-24T00:34:10.675Z,0
2017-06-24T00:34:51.178Z,0
2017-06-24T00:35:31.668Z,0
2017-06-24T00:36:12.156Z,0
2017-06-24T00:36:52.647Z,0
2017-06-24T00:37:33.140Z,0
2017-06-24T00:38:13.631Z,0
2017-06-24T00:38:54.136Z,0
2017-06-24T00:39:34.625Z,0
2017-06-24T00:40:15.114Z,0
2017-06-24T00:40:55.617Z,0
2017-06-24T00:41:36.106Z,0
2017-06-24T00:42:16.588Z,0
2017-06-24T00:42:57.084Z,0
2017-06-24T00:43:37.577Z,0
2017-06-24T00:44:18.061Z,0
2017-06-24T00:44:58.569Z,0
2017-06-24T00:45:39.046Z,0
2017-06-24T00:46:19.532Z,0
2017-06-24T00:47:00.030Z,0
2017-06-24T00:47:40.521Z,0
2017-06-24T00:48:21.015Z,0
2017-06-24T00:49:01.507Z,0
2017-06-24T00:49:42.001Z,0
2017-06-24T00:50:22.501Z,0
2017-06-24T00:51:02.991Z,0
2017-06-24T00:51:44.356Z,0
2017-06-24T00:52:24.861Z,0
2017-06-24T00:53:05.357Z,0
2017-06-24T00:53:45.833Z,0
2017-06-24T00:54:26.336Z,0
2017-06-24T00:55:06.825Z,0
2017-06-24T00:55:47.324Z,0
2017-06-24T00:56:27.823Z,0
2017-06-24T00:57:08.313Z,0
2017-06-24T00:57:48.805Z,0
2017-06-24T00:58:29.291Z,0
2017-06-24T00:59:09.766Z,0
2017-06-24T00:59:50.269Z,0
2017-06-24T01:00:30.765Z,0
2017-06-24T01:01:11.260Z,0
2017-06-24T01:01:51.757Z,0
2017-06-24T01:02:32.863Z,0
2017-06-24T01:03:13.354Z,0
2017-06-24T01:03:53.873Z,0
2017-06-24T01:04:34.341Z,0
2017-06-24T01:05:14.836Z,0
2017-06-24T01:05:55.330Z,0
2017-06-24T01:06:35.819Z,0
2017-06-24T01:07:16.304Z,0
2017-06-24T01:07:56.809Z,0
2017-06-24T01:08:37.301Z,0
2017-06-24T01:09:17.882Z,0
2017-06-24T01:09:58.400Z,0
2017-06-24T01:10:38.861Z,0
2017-06-24T01:11:19.357Z,0
2017-06-24T01:11:59.852Z,0
2017-06-24T01:12:40.363Z,0
2017-06-24T01:13:20.868Z,0
2017-06-24T01:14:01.362Z,0
2017-06-24T01:14:41.857Z,0
2017-06-24T01:15:22.352Z,0
2017-06-24T01:16:02.845Z,0
2017-06-24T01:16:43.338Z,0
2017-06-24T01:17:23.829Z,0
2017-06-24T01:18:04.324Z,0
2017-06-24T01:18:44.811Z,0
2017-06-24T01:19:25.314Z,0
2017-06-24T01:20:05.798Z,0
2017-06-24T01:20:46.285Z,0
2017-06-24T01:21:26.791Z,0
2017-06-24T01:22:07.277Z,0
2017-06-24T01:22:47.771Z,0
2017-06-24T01:23:28.260Z,0
2017-06-24T01:24:08.761Z,0
2017-06-24T01:24:49.263Z,0
2017-06-24T01:25:29.766Z,0
2017-06-24T01:26:10.261Z,0
2017-06-24T01:26:50.760Z,0
2017-06-24T01:27:31.247Z,0
2017-06-24T01:28:11.745Z,0
2017-06-24T01:28:52.235Z,0
2017-06-24T01:29:32.734Z,0
2017-06-24T01:30:13.232Z,0
2017-06-24T01:30:53.736Z,0
2017-06-24T01:31:34.231Z,0
2017-06-24T01:32:14.720Z,0
2017-06-24T01:32:55.219Z,0
2017-06-24T01:33:35.714Z,0
2017-06-24T01:34:16.213Z,0
2017-06-24T01:34:56.701Z,0
2017-06-24T01:35:37.196Z,0
2017-06-24T01:36:17.686Z,0
2017-06-24T01:36:58.175Z,0
2017-06-24T01:37:38.661Z,0
2017-06-24T01:38:19.164Z,0
2017-06-24T01:38:59.658Z,0
2017-06-24T01:39:40.149Z,0
2017-06-24T01:40:20.638Z,0
2017-06-24T01:41:01.135Z,0
2017-06-24T01:41:41.633Z,0
2017-06-24T01:42:22.116Z,0
2017-06-24T01:43:02.599Z,0
2017-06-24T01:43:43.080Z,0
2017-06-24T01:44:23.564Z,0
2017-06-24T01:45:04.076Z,0
2017-06-24T01:45:44.559Z,0
2017-06-24T01:46:25.061Z,0
2017-06-24T01:47:05.557Z,0
2017-06-24T01:47:46.047Z,0
2017-06-24T01:48:26.557Z,0
2017-06-24T01:49:07.039Z,0
2017-06-24T01:49:47.530Z,0
2017-06-24T01:50:28.023Z,0
2017-06-24T01:51:08.524Z,0
2017-06-24T01:51:49.022Z,0
2017-06-24T01:52:29.502Z,0
2017-06-24T01:53:09.987Z,0
2017-06-24T01:53:50.480Z,0
2017-06-24T01:54:30.962Z,0
2017-06-24T01:55:11.470Z,0
2017-06-24T01:55:51.972Z,0
2017-06-24T01:56:32.456Z,0
2017-06-24T01:57:12.942Z,0
2017-06-24T01:57:53.433Z,0
2017-06-24T01:58:33.926Z,0
2017-06-24T01:59:14.416Z,0
2017-06-24T01:59:54.908Z,0
2017-06-24T02:00:35.397Z,0
2017-06-24T02:01:15.883Z,0
2017-06-24T02:01:56.406Z,0
2017-06-24T02:02:36.906Z,0
2017-06-24T02:03:17.403Z,0
2017-06-24T02:03:57.891Z,0
2017-06-24T02:04:38.388Z,0
2017-06-24T02:05:18.880Z,0
2017-06-24T02:05:59.384Z,0
2017-06-24T02:06:39.869Z,0
2017-06-24T02:07:20.359Z,0
2017-06-24T02:08:00.853Z,0
2017-06-24T02:08:41.369Z,0
2017-06-24T02:09:21.825Z,0
2017-06-24T02:10:02.324Z,0
2017-06-24T02:10:42.816Z,0
2017-06-24T02:11:23.313Z,0
2017-06-24T02:12:03.805Z,0
2017-06-24T02:12:44.297Z,0
2017-06-24T02:13:24.814Z,0
2017-06-24T02:14:05.286Z,0
2017-06-24T02:14:45.776Z,0
2017-06-24T02:15:26.265Z,0
2017-06-24T02:16:06.733Z,0
2017-06-24T02:16:47.230Z,0
2017-06-24T02:17:27.743Z,0
2017-06-24T02:18:08.201Z,0
2017-06-24T02:18:48.685Z,0
2017-06-24T02:19:29.186Z,0
2017-06-24T02:20:09.679Z,0
2017-06-24T02:20:50.173Z,0
2017-06-24T02:21:30.662Z,0
2017-06-24T02:22:11.157Z,0
2017-06-24T02:22:51.651Z,0
2017-06-24T02:23:32.150Z,0
2017-06-24T02:24:12.645Z,0
2017-06-24T02:24:53.129Z,0
2017-06-24T02:25:33.619Z,0
2017-06-24T02:26:14.114Z,0
2017-06-24T02:26:54.591Z,0
2017-06-24T02:27:35.090Z,0
2017-06-24T02:28:15.587Z,0
2017-06-24T02:28:56.076Z,0
2017-06-24T02:29:36.566Z,0
2017-06-24T02:30:17.054Z,0
2017-06-24T02:30:57.551Z,0
2017-06-24T02:31:38.045Z,0
2017-06-24T02:32:18.524Z,0
2017-06-24T02:32:59.022Z,0
2017-06-24T02:33:39.520Z,0
2017-06-24T02:34:20.021Z,0
2017-06-24T02:35:00.507Z,0
2017-06-24T02:35:41.006Z,0
2017-06-24T02:36:21.486Z,0
2017-06-24T02:37:02.001Z,0
2017-06-24T02:37:42.481Z,0
2017-06-24T02:38:22.972Z,0
2017-06-24T02:39:03.472Z,0
2017-06-24T02:39:43.959Z,0
2017-06-24T02:40:24.454Z,0
2017-06-24T02:41:04.947Z,0
2017-06-24T02:41:45.438Z,0
2017-06-24T02:42:25.927Z,0
2017-06-24T02:43:06.427Z,0
2017-06-24T02:43:46.908Z,0
2017-06-24T02:44:27.402Z,0
2017-06-24T02:45:07.886Z,0
2017-06-24T02:45:48.396Z,0
2017-06-24T02:46:28.879Z,4
2017-06-24T02:47:09.374Z,4
2017-06-24T02:47:49.866Z,4
2017-06-24T02:48:30.356Z,4
2017-06-24T02:49:10.849Z,4
2017-06-24T02:49:51.362Z,0
2017-06-24T02:50:31.844Z,4
2017-06-24T02:51:13.090Z,4
2017-06-24T02:51:53.635Z,4
2017-06-24T02:52:34.129Z,4
2017-06-24T02:53:14.610Z,8
2017-06-24T02:53:55.113Z,4
2017-06-24T02:54:35.606Z,4
2017-06-24T02:55:16.101Z,8
2017-06-24T02:55:56.598Z,8
2017-06-24T02:56:37.082Z,8
2017-06-24T02:57:17.584Z,8
2017-06-24T02:57:58.688Z,8
2017-06-24T02:58:39.181Z,8
2017-06-24T02:59:19.668Z,12
2017-06-24T03:00:00.185Z,12
2017-06-24T03:00:40.642Z,16
2017-06-24T03:01:21.153Z,16
2017-06-24T03:02:01.633Z,16
2017-06-24T03:02:42.129Z,16
2017-06-24T03:03:22.642Z,20
2017-06-24T03:04:03.118Z,20
2017-06-24T03:04:43.612Z,24
2017-06-24T03:05:24.098Z,24
2017-06-24T03:06:04.591Z,28
2017-06-24T03:06:45.081Z,28
2017-06-24T03:07:25.580Z,36
2017-06-24T03:08:06.068Z,36
2017-06-24T03:08:46.566Z,40
2017-06-24T03:09:27.045Z,44
2017-06-24T03:10:07.551Z,44
2017-06-24T03:10:48.039Z,52
2017-06-24T03:11:28.548Z,52
2017-06-24T03:12:09.026Z,60
2017-06-24T03:12:49.515Z,64
2017-06-24T03:13:30.011Z,68
2017-06-24T03:14:10.510Z,72
2017-06-24T03:14:51.006Z,80
2017-06-24T03:15:31.515Z,84
2017-06-24T03:16:12.009Z,88
2017-06-24T03:16:52.508Z,96
2017-06-24T03:17:32.997Z,100
2017-06-24T03:18:13.475Z,108
2017-06-24T03:18:53.966Z,112
2017-06-24T03:19:34.470Z,116
2017-06-24T03:20:14.966Z,124
2017-06-24T03:20:55.481Z,128
2017-06-24T03:21:35.981Z,140
2017-06-24T03:22:16.475Z,148
2017-06-24T03:22:56.962Z,152
2017-06-24T03:23:37.459Z,164
2017-06-24T03:24:17.960Z,176
2017-06-24T03:24:58.447Z,188
2017-06-24T03:25:38.937Z,204
2017-06-24T03:28:11.984Z,248
2017-06-24T03:28:52.466Z,260
2017-06-24T03:29:32.948Z,276
2017-06-24T03:30:13.437Z,288
2017-06-24T03:30:53.941Z,304
2017-06-24T03:31:34.430Z,316
2017-06-24T03:32:14.918Z,328
2017-06-24T03:32:55.402Z,340
2017-06-24T03:33:35.899Z,352
2017-06-24T03:34:16.390Z,368
2017-06-24T03:34:56.894Z,384
2017-06-24T03:35:37.379Z,396
2017-06-24T03:36:17.869Z,416
2017-06-24T03:36:58.359Z,428
2017-06-24T03:37:38.851Z,440
2017-06-24T03:38:19.333Z,460
2017-06-24T03:38:59.818Z,472
2017-06-24T03:39:40.328Z,488
2017-06-24T03:40:20.821Z,504
2017-06-24T03:41:01.317Z,520
2017-06-24T03:41:41.817Z,536
2017-06-24T03:42:22.284Z,560
2017-06-24T03:43:02.778Z,580
2017-06-24T03:43:43.289Z,596
2017-06-24T03:44:23.777Z,608
2017-06-24T03:45:04.273Z,620
2017-06-24T03:45:44.765Z,632
2017-06-24T03:46:25.237Z,648
2017-06-24T03:47:05.731Z,668
2017-06-24T03:47:46.235Z,692
2017-06-24T03:48:26.715Z,712
2017-06-24T03:49:07.213Z,740
2017-06-24T03:49:47.699Z,784
2017-06-24T03:50:28.191Z,816
2017-06-24T03:51:08.670Z,840
2017-06-24T03:51:49.169Z,836
2017-06-24T03:52:29.671Z,832
2017-06-24T03:53:10.175Z,836
2017-06-24T03:53:50.686Z,852
2017-06-24T03:54:31.183Z,868
2017-06-24T03:55:11.684Z,888
2017-06-24T03:55:52.180Z,904
2017-06-24T03:56:32.669Z,932
2017-06-24T03:57:13.166Z,956
2017-06-24T03:57:53.658Z,976
2017-06-24T03:58:34.153Z,1000
2017-06-24T03:59:14.634Z,1020
2017-06-24T03:59:55.138Z,1044
2017-06-24T04:00:35.633Z,1068
2017-06-24T04:01:16.132Z,1088
2017-06-24T04:01:56.622Z,1116
2017-06-24T04:02:37.110Z,1148
2017-06-24T04:03:17.604Z,1168
2017-06-24T04:03:58.091Z,1196
2017-06-24T04:04:38.581Z,1216
2017-06-24T04:05:19.073Z,1244
2017-06-24T04:05:59.566Z,1268
2017-06-24T04:06:40.063Z,1288
2017-06-24T04:07:20.558Z,1324
2017-06-24T04:08:01.048Z,1364
2017-06-24T04:08:41.547Z,1392
2017-06-24T04:09:22.034Z,1412
2017-06-24T04:10:02.527Z,1412
2017-06-24T04:10:43.020Z,1408
2017-06-24T04:11:23.521Z,1404
2017-06-24T04:12:04.005Z,1416
2017-06-24T04:12:44.491Z,1436
2017-06-24T04:13:24.986Z,1460
2017-06-24T04:14:05.474Z,1484
2017-06-24T04:14:45.968Z,1516
2017-06-24T04:15:26.471Z,1560
2017-06-24T04:16:06.964Z,1600
2017-06-24T04:16:47.485Z,1640
2017-06-24T04:17:27.970Z,1680
2017-06-24T04:18:08.464Z,1720
2017-06-24T04:18:48.952Z,1764
2017-06-24T04:19:29.445Z,1828
2017-06-24T04:20:09.969Z,1900
2017-06-24T04:20:50.455Z,1956
2017-06-24T04:21:30.958Z,1996
2017-06-24T04:22:11.450Z,2076
2017-06-24T04:22:51.965Z,2208
2017-06-24T04:23:32.465Z,2340
2017-06-24T04:24:12.970Z,2504
2017-06-24T04:24:53.468Z,2640
2017-06-24T04:25:33.962Z,2648
2017-06-24T04:26:14.457Z,2612
2017-06-24T04:26:54.961Z,2640
2017-06-24T04:27:35.458Z,2736
2017-06-24T04:28:15.955Z,2756
2017-06-24T04:28:56.456Z,2800
2017-06-24T04:29:36.933Z,2860
2017-06-24T04:30:17.434Z,3016
2017-06-24T04:30:57.927Z,3116
2017-06-24T04:31:38.411Z,3184
2017-06-24T04:32:18.905Z,3168
2017-06-24T04:32:59.399Z,3204
2017-06-24T04:33:39.919Z,3092
2017-06-24T04:34:20.416Z,3004
2017-06-24T04:35:00.905Z,2824
2017-06-24T04:35:41.397Z,2704
2017-06-24T04:36:21.893Z,2644
2017-06-24T04:37:02.384Z,2712
2017-06-24T04:37:42.879Z,2864
2017-06-24T04:38:23.380Z,3200
2017-06-24T04:39:03.874Z,3556
2017-06-24T04:39:44.385Z,3932
2017-06-24T04:40:24.878Z,4572
2017-06-24T04:41:05.378Z,5020
2017-06-24T04:41:45.869Z,5352
2017-06-24T04:42:26.356Z,5560
2017-06-24T04:43:06.853Z,5640
2017-06-24T04:43:47.344Z,5604
2017-06-24T04:44:27.832Z,5628
2017-06-24T04:45:08.988Z,5668
2017-06-24T04:45:49.465Z,5804
2017-06-24T04:46:29.968Z,5860
2017-06-24T04:47:10.454Z,5940
2017-06-24T04:47:50.948Z,6004
2017-06-24T04:48:31.443Z,5928
2017-06-24T04:49:11.940Z,5628
2017-06-24T04:49:52.431Z,5128
2017-06-24T04:50:32.946Z,4736
2017-06-24T04:51:13.438Z,3920
2017-06-24T04:51:53.949Z,4128
2017-06-24T04:52:34.429Z,4084
2017-06-24T04:53:14.921Z,4320
2017-06-24T04:53:55.411Z,4232
2017-06-24T04:54:35.906Z,4112
2017-06-24T04:55:16.400Z,3936
2017-06-24T04:55:56.890Z,3828
2017-06-24T04:56:37.386Z,3668
2017-06-24T04:57:17.871Z,3588
2017-06-24T04:57:58.369Z,3728
2017-06-24T04:58:38.858Z,3892
2017-06-24T04:59:19.351Z,4040
2017-06-24T04:59:59.846Z,4292
2017-06-24T05:00:40.340Z,4252
2017-06-24T05:01:20.831Z,4264
2017-06-24T05:02:01.330Z,4660
2017-06-24T05:02:41.824Z,4644
2017-06-24T05:03:22.314Z,4588
2017-06-24T05:04:02.826Z,4724
2017-06-24T05:04:43.320Z,5012
2017-06-24T05:05:23.820Z,5184
2017-06-24T05:06:04.317Z,6500
2017-06-24T05:06:44.799Z,6152
2017-06-24T05:07:25.301Z,6056
2017-06-24T05:08:05.776Z,7644
2017-06-24T05:08:46.274Z,5148
2017-06-24T05:09:26.761Z,7748
2017-06-24T05:10:07.264Z,5292
2017-06-24T05:10:47.750Z,4860
2017-06-24T05:11:28.245Z,4908
2017-06-24T05:12:08.756Z,4784
2017-06-24T05:12:49.271Z,5104
2017-06-24T05:13:29.759Z,5240
2017-06-24T05:14:10.249Z,5500
2017-06-24T05:16:43.284Z,5544
2017-06-24T05:17:23.763Z,5652
2017-06-24T05:18:04.254Z,5716
2017-06-24T05:18:44.747Z,5912
2017-06-24T05:19:25.251Z,6148
2017-06-24T05:20:05.735Z,9408
2017-06-24T05:20:46.229Z,6516
2017-06-24T05:21:26.725Z,6320
2017-06-24T05:22:07.206Z,6572
2017-06-24T05:22:47.702Z,6916
2017-06-24T05:23:28.193Z,6692
2017-06-24T05:24:08.700Z,7112
2017-06-24T05:24:49.181Z,9548
2017-06-24T05:25:29.679Z,6572
2017-06-24T05:26:10.168Z,6336
2017-06-24T05:26:50.662Z,6404
2017-06-24T05:27:31.157Z,6320
2017-06-24T05:28:11.651Z,6136
2017-06-24T05:28:52.146Z,6008
2017-06-24T05:29:32.658Z,5980
2017-06-24T05:30:13.155Z,5736
2017-06-24T05:30:53.658Z,5692
2017-06-24T05:31:34.142Z,5756
2017-06-24T05:32:14.629Z,5724
2017-06-24T05:32:55.131Z,5700
2017-06-24T05:33:35.623Z,5536
2017-06-24T05:34:16.116Z,5480
2017-06-24T05:34:56.624Z,5432
2017-06-24T05:35:37.095Z,5492
2017-06-24T05:36:17.582Z,5532
2017-06-24T05:36:58.091Z,5600
2017-06-24T05:37:38.570Z,5824
2017-06-24T05:38:19.060Z,6144
2017-06-24T05:38:59.556Z,6196
2017-06-24T05:39:40.053Z,6344
2017-06-24T05:40:20.543Z,6204
2017-06-24T05:41:01.054Z,6144
2017-06-24T05:41:41.525Z,6092
2017-06-24T05:42:22.015Z,5920
2017-06-24T05:43:02.512Z,6116
2017-06-24T05:43:43.003Z,6192
2017-06-24T05:44:23.492Z,6212
2017-06-24T05:45:03.994Z,6496
2017-06-24T05:45:44.476Z,6336
2017-06-24T05:46:24.967Z,6444
2017-06-24T05:47:05.457Z,6864
2017-06-24T05:47:45.957Z,6956
2017-06-24T05:48:26.446Z,6948
2017-06-24T05:49:06.945Z,7376
2017-06-24T05:49:47.436Z,7564
2017-06-24T05:50:27.927Z,7392
2017-06-24T05:51:08.401Z,7392
2017-06-24T05:51:48.906Z,7200
2017-06-24T05:52:29.399Z,7188
2017-06-24T05:53:09.893Z,7316
2017-06-24T05:53:50.386Z,7644
2017-06-24T05:56:08.193Z,8036
2017-06-24T05:56:48.684Z,8264
2017-06-24T05:57:29.182Z,8868
2017-06-24T05:58:09.701Z,8676
2017-06-24T05:58:50.195Z,8384
2017-06-24T05:59:30.698Z,8992
2017-06-24T06:00:11.201Z,8660
2017-06-24T06:00:51.679Z,9152
2017-06-24T06:01:32.165Z,9744
2017-06-24T06:02:12.674Z,9316
2017-06-24T06:02:53.191Z,8704
2017-06-24T06:03:33.628Z,9064
2017-06-24T06:04:14.124Z,8940
2017-06-24T06:04:54.622Z,9192
2017-06-24T06:05:35.107Z,9400
2017-06-24T06:06:15.593Z,9716
2017-06-24T06:06:56.113Z,10068
2017-06-24T06:07:36.589Z,10840
2017-06-24T06:08:17.074Z,10328
2017-06-24T06:08:57.560Z,10000
2017-06-24T06:09:38.060Z,10084
2017-06-24T06:10:18.563Z,10312
2017-06-24T06:10:59.048Z,10716
2017-06-24T06:11:39.525Z,11744
2017-06-24T06:12:20.021Z,12420
2017-06-24T06:13:00.522Z,12012
2017-06-24T06:13:41.018Z,14972
2017-06-24T06:14:21.514Z,13192
2017-06-24T06:15:02.011Z,11496
2017-06-24T06:15:42.510Z,11476
2017-06-24T06:16:23.016Z,11616
2017-06-24T06:17:03.514Z,11956
2017-06-24T06:17:44.017Z,13884
2017-06-24T06:18:24.501Z,14068
2017-06-24T06:19:04.999Z,23296
2017-06-24T06:19:45.508Z,16896
2017-06-24T06:20:26.006Z,20832
2017-06-24T06:21:06.504Z,20096
2017-06-24T06:21:46.993Z,10760
2017-06-24T06:22:27.472Z,23712
2017-06-24T06:23:07.972Z,16768
2017-06-24T06:23:48.484Z,13500
2017-06-24T06:24:28.974Z,14892
2017-06-24T06:25:09.489Z,23456
2017-06-24T06:25:49.983Z,22208
2017-06-24T06:26:30.490Z,21248
2017-06-24T06:27:10.970Z,23360
2017-06-24T06:27:51.467Z,23936
2017-06-24T06:28:31.978Z,24224
2017-06-24T06:29:12.476Z,24480
2017-06-24T06:29:52.958Z,25120
2017-06-24T06:30:33.458Z,25408
2017-06-24T06:31:13.954Z,25440
2017-06-24T06:31:54.442Z,25920
2017-06-24T06:32:34.942Z,26048
2017-06-24T06:33:15.433Z,25728
2017-06-24T06:33:55.925Z,26144
2017-06-24T06:34:36.425Z,26144
2017-06-24T06:35:16.912Z,26560
2017-06-24T06:35:57.407Z,27040
2017-06-24T06:36:37.913Z,27040
2017-06-24T06:37:18.410Z,27072
2017-06-24T06:37:58.909Z,27136
2017-06-24T06:38:39.402Z,27392
2017-06-24T06:39:19.897Z,27520
2017-06-24T06:40:00.387Z,27584
2017-06-24T06:40:40.885Z,27584
2017-06-24T06:41:21.377Z,27520
2017-06-24T06:42:01.866Z,28032
2017-06-24T06:42:42.364Z,36256
2017-06-24T06:43:22.846Z,47936
2017-06-24T06:44:03.345Z,59200
2017-06-24T06:44:43.838Z,67456
2017-06-24T06:45:24.329Z,67008
2017-06-24T06:46:04.823Z,62528
2017-06-24T06:46:45.313Z,60544
2017-06-24T06:47:25.797Z,55200
2017-06-24T06:48:06.300Z,50784
2017-06-24T06:48:46.798Z,50208
2017-06-24T06:49:27.311Z,52544
2017-06-24T06:50:07.805Z,54048
2017-06-24T06:50:48.312Z,53248
2017-06-24T06:51:28.798Z,47168
2017-06-24T06:52:09.302Z,46624
2017-06-24T06:52:49.809Z,47040
2017-06-24T06:53:30.302Z,49984
2017-06-24T06:54:10.800Z,49440
2017-06-24T06:54:51.297Z,50976
2017-06-24T06:55:31.788Z,52192
2017-06-24T06:56:12.292Z,53152
2017-06-24T06:56:52.782Z,54784
2017-06-24T06:57:33.272Z,53376
2017-06-24T06:58:13.788Z,50304
2017-06-24T06:58:54.284Z,49824
2017-06-24T06:59:34.770Z,50112
2017-06-24T07:00:15.259Z,50528
2017-06-24T07:00:55.753Z,52512
2017-06-24T07:01:36.251Z,52608
2017-06-24T07:02:16.744Z,53792
2017-06-24T07:02:57.246Z,53600
2017-06-24T07:03:37.745Z,52576
2017-06-24T07:04:18.248Z,55168
2017-06-24T07:04:58.752Z,55808
2017-06-24T07:05:39.242Z,57216
2017-06-24T07:06:19.728Z,53920
2017-06-24T07:07:01.040Z,54144
2017-06-24T07:07:41.539Z,54144
2017-06-24T07:08:22.056Z,52768
2017-06-24T07:09:02.553Z,52032
2017-06-24T07:09:43.045Z,52224
2017-06-24T07:10:23.541Z,52960
2017-06-24T07:11:04.029Z,54464
2017-06-24T07:11:44.517Z,56288
2017-06-24T07:12:25.021Z,55616
2017-06-24T07:13:05.515Z,55392
2017-06-24T07:13:46.018Z,52800
2017-06-24T07:14:26.526Z,54400
2017-06-24T07:15:07.017Z,55296
2017-06-24T07:15:47.519Z,52352
2017-06-24T07:16:28.030Z,53216
2017-06-24T07:17:09.314Z,52096
2017-06-24T07:17:49.807Z,54944
2017-06-24T07:18:30.306Z,53984
2017-06-24T07:19:10.808Z,53376
2017-06-24T07:19:51.317Z,52352
2017-06-24T07:20:31.811Z,55616
2017-06-24T07:21:12.316Z,57920
2017-06-24T07:21:52.807Z,56960
2017-06-24T07:22:33.301Z,58816
2017-06-24T07:23:13.809Z,59040
2017-06-24T07:23:54.301Z,54080
2017-06-24T07:24:34.795Z,55040
2017-06-24T07:25:15.287Z,40064
2017-06-24T07:25:55.785Z,39072
2017-06-24T07:26:36.281Z,40576
2017-06-24T07:27:16.788Z,42016
2017-06-24T07:27:57.292Z,47008
2017-06-24T07:28:37.785Z,44352
2017-06-24T07:29:18.274Z,37088
2017-06-24T07:29:58.798Z,29184
2017-06-24T07:30:39.303Z,19872
2017-06-24T07:31:19.817Z,19168
2017-06-24T07:32:00.311Z,18432
2017-06-24T07:32:40.811Z,17984
2017-06-24T07:33:21.303Z,17984
2017-06-24T07:34:01.806Z,17728
2017-06-24T07:34:43.151Z,17644
2017-06-24T07:35:23.652Z,17700
2017-06-24T07:36:04.156Z,17608
2017-06-24T07:36:44.646Z,17656
2017-06-24T07:37:25.150Z,17544
2017-06-24T07:38:05.649Z,17512
2017-06-24T07:38:46.131Z,17208
2017-06-24T07:39:26.645Z,17480
2017-06-24T07:40:07.141Z,17520
2017-06-24T07:40:47.637Z,17664
2017-06-24T07:41:28.126Z,17820
2017-06-24T07:42:08.639Z,18008
2017-06-24T07:42:49.144Z,18368
2017-06-24T07:43:29.650Z,18400
2017-06-24T07:44:10.162Z,18368
2017-06-24T07:44:50.653Z,17920
2017-06-24T07:45:31.152Z,17500
2017-06-24T07:46:11.647Z,17148
2017-06-24T07:46:52.137Z,17100
2017-06-24T07:47:32.631Z,16968
2017-06-24T07:48:13.134Z,16884
2017-06-24T07:48:53.630Z,16880
2017-06-24T07:49:34.135Z,16932
2017-06-24T07:50:14.628Z,16928
2017-06-24T07:50:55.123Z,17120
2017-06-24T07:51:35.629Z,17128
2017-06-24T07:52:16.145Z,17104
2017-06-24T07:52:56.634Z,17144
2017-06-24T07:53:37.127Z,17204
2017-06-24T07:54:17.648Z,17388
2017-06-24T07:54:58.143Z,17336
2017-06-24T07:55:39.334Z,17580
2017-06-24T07:56:19.857Z,17564
2017-06-24T07:57:00.310Z,17684
2017-06-24T07:57:40.783Z,17940
2017-06-24T07:58:21.268Z,18232
2017-06-24T07:59:01.723Z,18220
2017-06-24T07:59:42.183Z,17832
2017-06-24T08:00:22.639Z,17820
2017-06-24T08:02:35.390Z,17944
2017-06-24T08:03:15.863Z,18260
2017-06-24T08:03:56.367Z,18248
2017-06-24T08:04:36.871Z,18488
2017-06-24T08:05:17.378Z,18216
2017-06-24T08:05:57.868Z,18268
2017-06-24T08:06:38.362Z,18484
2017-06-24T08:07:18.866Z,18912
2017-06-24T08:07:59.334Z,19264
2017-06-24T08:08:39.837Z,19264
2017-06-24T08:09:20.325Z,20000
2017-06-24T08:10:00.830Z,21152
2017-06-24T08:10:41.327Z,24928
2017-06-24T08:11:21.827Z,31232
2017-06-24T08:12:02.320Z,38528
2017-06-24T08:12:42.823Z,46752
2017-06-24T08:13:23.320Z,57536
2017-06-24T08:14:03.817Z,67328
2017-06-24T08:14:45.270Z,76480
2017-06-24T08:15:25.780Z,80512
2017-06-24T08:16:06.282Z,80032
2017-06-24T08:16:46.778Z,77376
2017-06-24T08:17:27.273Z,66016
2017-06-24T08:18:07.769Z,46912
2017-06-24T08:18:48.272Z,30208
2017-06-24T08:19:28.772Z,21920
2017-06-24T08:20:09.274Z,20672
2017-06-24T08:20:49.771Z,20384
2017-06-24T08:21:30.256Z,20192
2017-06-24T08:22:10.754Z,20032
2017-06-24T08:22:51.258Z,20160
2017-06-24T08:23:31.759Z,20352
2017-06-24T08:24:12.272Z,20224
2017-06-24T08:24:52.746Z,20512
2017-06-24T08:25:33.247Z,20608
2017-06-24T08:26:13.745Z,20704
2017-06-24T08:26:54.239Z,20864
2017-06-24T08:27:34.749Z,21216
2017-06-24T08:28:15.244Z,21632
2017-06-24T08:28:55.750Z,23840
2017-06-24T08:29:36.244Z,40096
2017-06-24T08:30:16.729Z,63936
2017-06-24T08:30:57.243Z,85376
2017-06-24T08:31:37.744Z,67648
2017-06-24T08:32:18.236Z,82336
2017-06-24T08:32:58.743Z,83648
2017-06-24T08:33:39.259Z,84128
2017-06-24T08:34:19.760Z,88160
2017-06-24T08:35:00.264Z,88000
2017-06-24T08:35:40.784Z,87968
2017-06-24T08:36:21.249Z,84864
2017-06-24T08:37:01.755Z,80224
2017-06-24T08:37:42.251Z,80960
2017-06-24T08:38:22.759Z,82432
2017-06-24T08:39:03.263Z,85824
2017-06-24T08:39:43.755Z,88384
2017-06-24T08:40:24.252Z,88832
2017-06-24T08:41:04.750Z,85824
2017-06-24T08:41:45.256Z,83648
2017-06-24T08:42:25.753Z,85216
2017-06-24T08:43:06.288Z,82080
2017-06-24T08:43:46.736Z,83424
2017-06-24T08:44:27.236Z,87520
2017-06-24T08:45:07.732Z,87584
2017-06-24T08:45:48.272Z,87616
2017-06-24T08:46:28.760Z,96192
2017-06-24T08:47:09.264Z,99488
2017-06-24T08:47:49.815Z,99680
2017-06-24T08:48:30.302Z,78336
2017-06-24T08:49:10.787Z,114688
2017-06-24T08:49:51.284Z,98976
2017-06-24T08:50:31.779Z,63712
2017-06-24T08:51:12.288Z,18828
2017-06-24T08:51:52.788Z,37408
2017-06-24T08:52:33.274Z,34080
2017-06-24T08:53:13.781Z,32512
2017-06-24T08:53:54.270Z,15844
2017-06-24T08:54:35.306Z,29760
2017-06-24T08:55:15.788Z,29536
2017-06-24T08:55:56.280Z,29952
2017-06-24T08:56:36.779Z,31584
2017-06-24T08:57:17.283Z,34304
2017-06-24T08:57:57.789Z,36096
2017-06-24T08:58:38.294Z,16896
2017-06-24T08:59:18.791Z,15620
2017-06-24T08:59:59.301Z,23904
2017-06-24T09:00:39.795Z,37536
2017-06-24T09:02:52.525Z,57376
2017-06-24T09:03:33.026Z,85504
2017-06-24T09:04:13.506Z,121664
2017-06-24T09:04:54.003Z,141376
2017-06-24T09:05:34.510Z,142336
2017-06-24T09:06:15.012Z,125984
2017-06-24T09:06:55.512Z,121728
2017-06-24T09:09:08.307Z,108800
2017-06-24T09:09:48.802Z,109120
2017-06-24T09:10:29.299Z,112992
2017-06-24T09:11:09.791Z,112384
2017-06-24T09:11:50.294Z,113088
2017-06-24T09:12:32.501Z,114336
2017-06-24T09:13:13.007Z,115840
2017-06-24T09:13:53.503Z,118720
2017-06-24T09:14:34.003Z,115744
2017-06-24T09:15:14.503Z,111968
2017-06-24T09:15:54.995Z,110496
2017-06-24T09:16:35.500Z,108640
2017-06-24T09:17:16.002Z,107520
2017-06-24T09:17:56.484Z,97600
2017-06-24T09:18:36.977Z,105920
2017-06-24T09:19:17.482Z,110112
2017-06-24T09:19:57.994Z,114240
2017-06-24T09:20:38.493Z,116480
2017-06-24T09:21:19.003Z,113184
2017-06-24T09:21:59.507Z,110016
2017-06-24T09:22:40.005Z,105824
2017-06-24T09:23:20.501Z,104864
2017-06-24T09:24:01.029Z,99808